Station: Tennant Creek

  Atmospheric Gas Attenuation - ITU Rec 676-11   --------------- db/100km ---------------
Date Time Temp RH % AH g/m3 Dew Point Wind Direction Speed kph Gust kph Barometer mB Rainfall Since 9am 24GHz 47GHz 76GHz 122GHz 134GHz 241GHz
07 06:30 10.4 36 3.47 -4 11 13 1013.7 0 8.8 19.1 22.1 57.1 38.6 128.2
07 06:20 10.3 36 3.45 -4.1 13 13 1015 0 8.8 19.1 22.1 57.1 38.5 127.7
07 06:10 10.8 35 3.46 -4 7 9 1015.1 0 8.8 19.0 22.0 56.8 38.4 127.3
07 06:00 11 35 3.5 -3.8 9 11 1013.3 0 8.9 19.0 22.0 56.9 38.7 128.4
07 05:50 10.6 36 3.51 -3.8 7 9 1014.7 0 8.9 19.1 22.2 57.4 39.0 129.6
07 05:40 10 37 3.48 -4 11 11 1014.4 0 8.8 19.2 22.3 57.5 39.0 129.3
07 05:30 9.6 37 3.39 -4.4 9 13 1012.9 0 8.7 19.1 22.0 56.9 38.1 126.2
07 05:20 9.3 37 3.33 -4.6 0 0 1014.1 0 8.5 19.1 21.9 56.6 37.6 124.4
07 05:10 10.1 35 3.31 -4.6 6 6 1014.1 0 8.5 18.9 21.7 55.9 37.0 122.4
07 04:50 11.2 33 3.35 -4.5 9 11 1013.9 0 8.5 18.7 21.5 55.5 36.9 122.3
07 04:40 11.9 32 3.39 -4.2 11 13 1013.9 0 8.6 18.7 21.5 55.4 37.0 122.8
07 04:30 12.3 31 3.37 -4.3 11 15 1012.4 0 8.5 18.5 21.2 54.8 36.6 121.3
07 04:20 12.6 31 3.43 -4.1 11 13 1013.8 0 8.7 18.6 21.4 55.2 37.2 123.3
07 04:10 12.7 30 3.34 -4.4 13 15 1013.7 0 8.5 18.4 21.1 54.4 36.1 119.7
07 04:00 12.6 31 3.43 -4.1 13 17 1012.2 0 8.7 18.5 21.4 55.1 37.1 123.1
07 03:50 12.6 31 3.43 -4.1 13 17 1013.5 0 8.7 18.6 21.4 55.2 37.1 123.3
07 03:40 12.6 30 3.32 -4.5 15 15 1013.5 0 8.4 18.4 21.0 54.3 36.0 119.1
07 03:30 12.8 30 3.36 -4.3 13 15 1012 0 8.5 18.4 21.1 54.4 36.2 120.1
07 03:20 13.1 30 3.42 -4.1 13 15 1013.5 0 8.6 18.5 21.2 54.8 36.8 122.1
07 03:10 13.2 29 3.33 -4.4 11 13 1013.5 0 8.4 18.3 20.9 53.9 35.8 118.6
07 03:00 13.2 29 3.33 -4.4 13 17 1012.1 0 8.4 18.3 20.9 53.9 35.7 118.4
07 02:50 13.3 29 3.35 -4.3 13 15 1013.5 0 8.5 18.3 21.0 54.1 36.0 119.2
07 02:39 13.7 28 3.32 -4.5 13 13 1013.5 0 8.4 18.2 20.8 53.5 35.5 117.5
07 02:30 14 28 3.38 -4.2 13 15 1012.1 0 8.5 18.2 20.8 53.8 35.9 119.2
07 02:20 14.4 27 3.34 -4.3 13 17 1013.6 0 8.4 18.1 20.7 53.3 35.4 117.3
07 02:10 14.1 28 3.4 -4.1 15 17 1013.5 0 8.6 18.2 20.9 54.0 36.2 119.9
07 02:00 14.3 28 3.44 -3.9 15 17 1012.3 0 8.6 18.2 21.0 54.1 36.4 121.0
07 01:50 13.3 30 3.47 -3.9 11 11 1013.7 0 8.7 18.5 21.4 55.1 37.3 123.8
07 01:40 12.6 31 3.43 -4.1 11 11 1013.7 0 8.7 18.6 21.4 55.2 37.2 123.3
07 01:30 12.4 31 3.39 -4.2 9 11 1012.4 0 8.6 18.5 21.3 54.9 36.8 121.9
07 01:20 12.1 31 3.32 -4.5 9 9 1013.8 0 8.4 18.5 21.2 54.6 36.2 119.8
07 01:10 12.6 31 3.43 -4.1 9 11 1013.9 0 8.7 18.6 21.4 55.2 37.2 123.3
07 01:00 12.3 31 3.37 -4.3 11 13 1012.5 0 8.5 18.5 21.2 54.8 36.6 121.3
07 00:50 12.2 31 3.35 -4.4 9 11 1013.9 0 8.5 18.5 21.2 54.8 36.5 120.8
07 00:40 12.3 31 3.37 -4.3 9 11 1014 0 8.5 18.6 21.3 54.9 36.6 121.5
07 00:30 12.8 31 3.47 -3.9 11 13 1012.7 0 8.7 18.6 21.5 55.4 37.5 124.4
07 00:20 12.1 32 3.43 -4.1 11 11 1014.1 0 8.7 18.7 21.5 55.6 37.4 124.1
07 00:10 12 32 3.41 -4.2 11 13 1014.2 0 8.6 18.7 21.5 55.5 37.2 123.5
07 00:00 12.2 31 3.35 -4.4 11 11 1012.9 0 8.5 18.5 21.2 54.7 36.4 120.7
06 23:50 12.5 30 3.3 -4.6 11 11 1014.3 0 8.4 18.4 21.0 54.2 35.8 118.5
06 23:40 12.5 30 3.3 -4.6 11 11 1014.4 0 8.4 18.4 21.0 54.2 35.8 118.5
06 23:30 13 29 3.29 -4.6 9 11 1013 0 8.4 18.3 20.8 53.7 35.4 117.3
06 23:20 13.7 28 3.32 -4.5 9 9 1014.4 0 8.4 18.2 20.8 53.6 35.5 117.6
06 23:10 14.2 27 3.3 -4.5 11 11 1014.4 0 8.4 18.1 20.6 53.1 35.1 116.1
06 23:00 14.2 27 3.3 -4.5 11 13 1013 0 8.3 18.1 20.6 53.0 35.0 116.0
06 22:50 14.4 27 3.34 -4.3 11 13 1014.3 0 8.4 18.1 20.7 53.3 35.4 117.4
06 22:40 14.8 26 3.29 -4.5 11 13 1014.3 0 8.3 18.0 20.4 52.6 34.7 114.9
06 22:30 15.4 25 3.28 -4.5 11 13 1012.8 0 8.3 17.8 20.2 52.1 34.3 113.6
06 22:20 16 24 3.27 -4.5 11 13 1014.1 0 8.2 17.7 20.1 51.7 34.0 112.6
06 22:10 15.9 24 3.25 -4.6 11 11 1014.1 0 8.2 17.7 20.0 51.6 33.8 112.0
06 22:00 16.5 24 3.37 -4.1 13 15 1012.6 0 8.4 17.7 20.2 52.1 34.8 115.4
06 21:50 16.3 24 3.33 -4.3 13 13 1014 0 8.4 17.7 20.2 52.0 34.5 114.3
06 21:40 16.5 23 3.23 -4.7 13 15 1013.8 0 8.1 17.6 19.8 51.0 33.4 110.4
06 21:30 16.7 23 3.27 -4.5 13 15 1012.2 0 8.2 17.5 19.8 51.1 33.6 111.4
06 21:20 17 22 3.18 -4.8 11 13 1013.6 0 8.0 17.4 19.5 50.3 32.7 107.9
06 21:10 17.4 21 3.11 -5.1 13 13 1013.5 0 7.9 17.2 19.2 49.5 31.8 104.9
06 21:00 18 21 3.23 -4.6 11 13 1012.1 0 8.1 17.2 19.4 50.0 32.7 108.3
06 20:50 18.4 20 3.15 -4.9 11 13 1013.4 0 7.9 17.1 19.1 49.2 31.8 105.1
06 20:40 19 19 3.1 -5.1 13 15 1013.3 0 7.8 16.9 18.8 48.4 31.1 102.6
06 20:30 19.5 19 3.19 -4.7 13 17 1011.7 0 8.0 16.9 18.9 48.8 31.7 105.0
06 20:20 19.7 19 3.23 -4.5 13 17 1012.9 0 8.1 17.0 19.1 49.0 32.1 106.2
06 20:10 20.1 19 3.3 -4.2 15 17 1012.7 0 8.2 17.0 19.2 49.4 32.6 108.1
06 20:00 20.4 19 3.36 -4 15 20 1011 0 8.3 16.9 19.2 49.6 33.0 109.7
06 19:50 20.6 19 3.4 -3.8 13 15 1012.4 0 8.4 17.0 19.3 49.8 33.4 110.9
06 19:40 20.8 19 3.44 -3.6 15 19 1012.2 0 8.5 17.0 19.4 50.0 33.7 112.0
06 19:30 21 19 3.48 -3.5 15 19 1010.5 0 8.6 17.0 19.4 50.1 33.9 113.0
06 19:20 21.4 19 3.56 -3.1 15 19 1011.7 0 8.7 17.0 19.6 50.6 34.6 115.3
06 19:10 21.6 19 3.6 -3 17 22 1011.4 0 8.8 17.0 19.7 50.8 34.9 116.4
06 19:00 21.9 19 3.67 -2.7 17 26 1009.8 0 8.9 17.0 19.8 51.0 35.4 118.2
06 18:50 22.3 18 3.55 -3.1 17 24 1011.1 0 8.7 16.8 19.4 49.9 34.1 113.7
06 18:40 22.6 18 3.62 -2.9 20 28 1011 0 8.8 16.9 19.5 50.3 34.7 115.7
06 18:30 23 18 3.7 -2.6 24 32 1009.4 0 9.0 16.8 19.6 50.6 35.2 117.7
06 18:20 23.3 18 3.76 -2.3 19 22 1010.7 0 9.1 16.9 19.7 50.9 35.7 119.4
06 18:10 23.6 18 3.83 -2.1 28 33 1010.5 0 9.2 16.9 19.9 51.3 36.2 121.4
06 18:00 23.9 18 3.89 -1.8 26 46 1008.9 0 9.3 16.9 19.9 51.5 36.6 122.8
06 17:50 24.3 19 4.2 -0.8 30 35 1010.3 0 10.0 17.2 20.8 53.7 39.5 132.9
06 17:40 24.5 19 4.25 -0.6 28 33 1010.1 0 10.1 17.3 20.9 54.0 39.9 134.3
06 17:30 24.9 19 4.35 -0.3 32 50 1008.5 0 10.3 17.3 21.0 54.4 40.6 136.8
06 17:20 25.2 20 4.66 0.7 39 52 1010 0 10.9 17.6 21.9 56.7 43.5 147.1
06 17:10 25.3 20 4.68 0.7 32 41 1009.9 0 10.9 17.6 21.9 56.8 43.6 147.6
06 17:00 25.5 20 4.73 0.9 35 50 1008.2 0 11.0 17.6 22.0 57.0 44.0 148.8
06 16:50 25.7 20 4.79 1.1 33 37 1009.6 0 11.1 17.7 22.1 57.4 44.5 150.7
06 16:40 25.7 21 5.03 1.8 28 33 1009.6 0 11.6 18.0 22.8 59.3 46.8 158.9
06 16:30 26 21 5.11 2 35 56 1008 0 11.8 18.0 22.9 59.6 47.4 160.9
06 16:20 25.8 21 5.06 1.8 30 35 1009.4 0 11.7 18.0 22.9 59.5 47.1 159.8
06 16:10 26 21 5.11 2 35 41 1009.2 0 11.8 18.0 23.0 59.7 47.4 161.1
06 16:00 26.2 21 5.17 2.2 32 44 1007.7 0 11.9 18.0 23.1 59.9 47.8 162.6
06 15:50 26 21 5.11 2 26 32 1009.1 0 11.8 18.0 23.0 59.7 47.4 161.1
06 15:40 25.9 21 5.08 1.9 32 43 1009.1 0 11.7 18.0 22.9 59.5 47.2 160.2
06 15:30 26.4 21 5.23 2.3 32 54 1007.6 0 12.0 18.0 23.2 60.3 48.3 164.2
06 15:20 26.3 21 5.2 2.3 39 48 1008.9 0 12.0 18.0 23.2 60.2 48.1 163.6
06 15:10 26.4 20 4.98 1.7 32 50 1007.6 0 11.5 17.7 22.4 58.3 45.9 155.6
06 15:00 26.4 20 4.98 1.7 35 46 1007.6 0 11.5 17.7 22.4 58.3 45.9 155.6
06 14:50 26.2 21 5.17 2.2 37 44 1009.1 0 11.9 18.0 23.1 60.0 47.9 162.8
06 14:40 26.1 21 5.14 2.1 35 41 1009.1 0 11.8 18.0 23.0 59.9 47.7 161.9
06 14:30 26.4 21 5.23 2.3 30 39 1007.8 0 12.0 18.0 23.2 60.3 48.3 164.3
06 14:20 26.5 20 5.01 1.7 35 48 1009.4 0 11.6 17.8 22.6 58.6 46.2 156.7
06 14:10 26.3 19 4.7 0.9 26 32 1009.4 0 10.9 17.4 21.7 56.3 43.3 146.5
06 14:00 26.3 20 4.95 1.6 30 46 1008 0 11.5 17.7 22.4 58.1 45.7 154.8
06 13:50 24.8 20 4.55 0.3 22 30 1009.6 0 10.7 17.5 21.6 56.1 42.6 144.0

Last Refresh: 07-Aug-2020 06:45:31

Most of the information presented on this site is sourced from the Bureau of Meteorology.  Copyright in all material sourced from the Bureau of Meteorology resides with the Commonwealth of Australia.